Time;durP1;ratioP1;P1;durP2;ratioP2;P2;SDS_P1;SDS_P2;PMS_P1;PMS_P2;Temp;Humidity;BMP_temperature;BMP_pressure;BME280_temperature;BME280_humidity;BME280_pressure;Samples;Min_cycle;Max_cycle;Signal;HPM_P1;HPM_P2
2022/09/29 00:00:40;;;;;;;13.45;4.32;;;21.10;62.00;;;;;;4961043;28;20031;-73
2022/09/29 00:03:06;;;;;;;9.80;4.05;;;21.10;62.10;;;;;;4967448;28;20403;-74
2022/09/29 00:05:33;;;;;;;15.48;4.90;;;21.10;62.00;;;;;;4962502;28;20452;-74
2022/09/29 00:07:59;;;;;;;10.93;4.57;;;21.10;61.90;;;;;;4959647;28;20039;-74
2022/09/29 00:10:25;;;;;;;12.93;4.05;;;21.10;62.00;;;;;;4953287;28;20046;-74
2022/09/29 00:12:51;;;;;;;8.00;3.50;;;21.10;62.10;;;;;;4960113;28;20106;-73
2022/09/29 00:15:17;;;;;;;15.95;4.72;;;21.10;62.00;;;;;;4944733;28;20491;-74
2022/09/29 00:17:43;;;;;;;12.68;4.25;;;21.10;62.10;;;;;;4944959;28;20454;-73
2022/09/29 00:20:09;;;;;;;11.15;4.05;;;21.10;62.20;;;;;;4960487;28;20418;-73
2022/09/29 00:22:35;;;;;;;10.43;3.88;;;21.10;62.20;;;;;;4954980;28;20118;-74
2022/09/29 00:25:01;;;;;;;9.52;4.00;;;21.10;62.40;;;;;;4957636;28;20042;-74
2022/09/29 00:27:27;;;;;;;12.18;4.15;;;21.10;62.50;;;;;;4970291;28;20039;-73
2022/09/29 00:29:53;;;;;;;8.45;4.03;;;21.10;62.60;;;;;;4961374;28;20030;-74
2022/09/29 00:32:21;;;;;;;13.73;4.00;;;21.10;62.60;;;;;;4939549;28;20039;-74
2022/09/29 00:34:47;;;;;;;8.27;3.70;;;21.10;62.70;;;;;;4956680;28;20082;-74
2022/09/29 00:37:13;;;;;;;9.00;3.05;;;21.10;62.80;;;;;;4957716;28;20540;-74
2022/09/29 00:39:39;;;;;;;9.90;3.60;;;21.10;62.80;;;;;;4954812;28;20042;-74
2022/09/29 00:42:05;;;;;;;8.52;3.63;;;21.00;62.70;;;;;;4956752;28;20031;-74
2022/09/29 00:44:56;;;;;;;8.80;3.40;;;21.10;62.80;;;;;;4954645;28;20035;-74
2022/09/29 00:47:23;;;;;;;7.30;3.83;;;21.10;63.10;;;;;;4961010;28;20092;-74
2022/09/29 00:49:57;;;;;;;9.50;3.78;;;21.10;63.00;;;;;;4959753;28;20063;-74
2022/09/29 00:52:30;;;;;;;9.73;3.55;;;21.10;63.30;;;;;;4922588;28;20046;-74
2022/09/29 00:55:06;;;;;;;12.02;3.83;;;21.10;63.50;;;;;;4963095;28;20055;-74
2022/09/29 00:57:53;;;;;;;11.45;3.90;;;21.10;63.20;;;;;;4954627;28;20035;-74
2022/09/29 01:00:19;;;;;;;9.13;3.63;;;21.10;63.60;;;;;;4960797;28;20042;-74
2022/09/29 01:02:52;;;;;;;8.38;3.35;;;21.10;63.60;;;;;;4940771;28;20547;-74
2022/09/29 01:05:24;;;;;;;6.32;3.28;;;21.10;63.20;;;;;;4960233;28;20111;-74
2022/09/29 01:07:51;;;;;;;10.23;3.50;;;21.10;63.30;;;;;;4955835;28;20029;-74
2022/09/29 01:10:18;;;;;;;9.85;3.30;;;21.10;63.50;;;;;;4960349;28;20424;-74
2022/09/29 01:12:46;;;;;;;6.47;3.10;;;21.10;63.80;;;;;;4954847;28;20373;-72
2022/09/29 01:15:18;;;;;;;9.57;3.60;;;21.10;63.30;;;;;;4960482;28;20063;-72
2022/09/29 01:17:45;;;;;;;8.95;3.63;;;21.10;63.20;;;;;;4951507;28;20027;-72
2022/09/29 01:20:21;;;;;;;8.98;3.28;;;21.10;63.60;;;;;;4960453;28;20405;-72
2022/09/29 01:22:59;;;;;;;7.72;3.40;;;21.10;63.30;;;;;;4951224;28;20027;-72
2022/09/29 01:25:50;;;;;;;8.00;3.63;;;21.20;63.40;;;;;;4960034;28;20031;-72
2022/09/29 01:28:44;;;;;;;8.32;3.60;;;21.20;63.30;;;;;;4953210;28;20038;-72
2022/09/29 01:31:28;;;;;;;9.48;3.50;;;21.20;63.30;;;;;;4949370;28;20038;-73
2022/09/29 01:34:18;;;;;;;12.13;3.13;;;21.10;63.20;;;;;;4956586;28;20170;-73
2022/09/29 01:36:44;;;;;;;;;;;21.10;63.30;;;;;;4950917;28;20424;-73
2022/09/29 01:39:23;;;;;;;8.48;3.42;;;21.10;63.20;;;;;;4942037;28;19968;-73
2022/09/29 01:41:56;;;;;;;7.55;3.40;;;21.10;63.80;;;;;;4934420;28;20105;-73
2022/09/29 01:44:32;;;;;;;8.18;3.33;;;21.10;63.50;;;;;;4942612;28;20418;-74
2022/09/29 01:47:02;;;;;;;10.43;3.15;;;21.10;63.80;;;;;;4955331;28;20066;-73
2022/09/29 01:49:35;;;;;;;9.70;3.50;;;21.10;64.20;;;;;;4952670;28;20038;-74
2022/09/29 01:52:33;;;;;;;8.35;3.10;;;21.10;63.90;;;;;;4950848;28;20054;-73
2022/09/29 01:55:12;;;;;;;8.48;3.40;;;21.10;64.20;;;;;;4949485;28;20119;-73
2022/09/29 01:57:59;;;;;;;7.43;2.72;;;21.10;65.20;;;;;;4957897;28;20054;-73
2022/09/29 02:00:30;;;;;;;8.73;3.33;;;21.10;64.40;;;;;;4936535;28;20086;-74
2022/09/29 02:03:13;;;;;;;13.05;3.70;;;21.10;64.70;;;;;;4956169;28;20046;-73
2022/09/29 02:05:46;;;;;;;7.10;3.15;;;21.10;64.30;;;;;;4966839;28;20041;-74
2022/09/29 02:08:26;;;;;;;8.27;2.97;;;21.10;64.40;;;;;;4959056;28;20045;-74
2022/09/29 02:11:01;;;;;;;8.55;3.47;;;21.10;64.20;;;;;;4949439;28;20031;-74
2022/09/29 02:13:34;;;;;;;7.88;3.03;;;21.00;64.40;;;;;;4959657;28;20031;-74
2022/09/29 02:16:02;;;;;;;6.82;3.00;;;21.00;64.80;;;;;;4966908;28;20023;-74
2022/09/29 02:18:41;;;;;;;9.50;3.38;;;21.00;65.10;;;;;;4939360;28;20039;-74
2022/09/29 02:21:08;;;;;;;9.48;3.30;;;21.00;64.90;;;;;;4942040;28;20047;-73
2022/09/29 02:23:34;;;;;;;10.02;3.55;;;21.00;64.70;;;;;;4959904;28;20514;-74
2022/09/29 02:26:01;;;;;;;6.93;2.97;;;21.00;64.50;;;;;;4933147;28;20146;-72
2022/09/29 02:28:27;;;;;;;8.00;2.95;;;21.10;64.70;;;;;;4960601;28;20031;-73
2022/09/29 02:30:53;;;;;;;7.50;3.20;;;21.00;64.30;;;;;;4917978;28;20039;-72
2022/09/29 02:33:21;;;;;;;6.55;3.10;;;21.00;64.50;;;;;;4958616;28;20500;-73
2022/09/29 02:36:03;;;;;;;7.97;2.88;;;21.10;64.20;;;;;;4964900;28;20028;-73
2022/09/29 02:38:53;;;;;;;7.75;2.85;;;21.10;64.20;;;;;;4959449;28;20105;-73
2022/09/29 02:41:37;;;;;;;7.50;3.30;;;21.10;64.10;;;;;;4958108;28;20114;-73
2022/09/29 02:44:09;;;;;;;7.75;2.97;;;21.10;64.00;;;;;;4949866;28;20028;-73
2022/09/29 02:46:53;;;;;;;10.00;3.00;;;21.20;64.10;;;;;;4941223;28;20035;-73
2022/09/29 02:50:05;;;;;;;5.78;2.70;;;21.10;63.90;;;;;;4960288;23;20083;-70
2022/09/29 02:53:09;;;;;;;8.02;3.03;;;21.10;64.00;;;;;;4915089;29;20031;-69
2022/09/29 02:56:04;;;;;;;6.63;2.92;;;21.10;64.20;;;;;;4937121;29;20040;-68
2022/09/29 02:59:05;;;;;;;4.40;2.60;;;21.10;64.30;;;;;;4924539;29;20480;-69
2022/09/29 03:01:32;;;;;;;5.97;2.67;;;21.00;64.10;;;;;;4909674;29;20039;-69
2022/09/29 03:03:58;;;;;;;5.68;2.92;;;21.10;64.30;;;;;;4900453;29;20028;-68
2022/09/29 03:06:24;;;;;;;7.10;3.08;;;21.10;64.30;;;;;;4922572;29;20480;-69
2022/09/29 03:08:50;;;;;;;6.18;3.30;;;21.10;64.60;;;;;;4922333;29;20083;-69
2022/09/29 03:11:16;;;;;;;7.95;2.80;;;21.10;64.50;;;;;;4919976;29;20024;-69
2022/09/29 03:13:41;;;;;;;6.20;2.67;;;21.10;64.80;;;;;;4914126;29;20028;-69
2022/09/29 03:16:07;;;;;;;6.65;3.00;;;21.00;64.60;;;;;;4916529;29;20030;-69
2022/09/29 03:18:33;;;;;;;8.35;2.90;;;21.10;65.10;;;;;;4919323;29;20024;-69
2022/09/29 03:20:59;;;;;;;7.47;2.83;;;21.00;64.80;;;;;;4926141;29;20051;-69
2022/09/29 03:23:25;;;;;;;6.75;2.80;;;21.00;65.30;;;;;;4921113;29;20401;-69
2022/09/29 03:25:51;;;;;;;6.45;2.65;;;21.00;65.10;;;;;;4919142;29;20036;-69
2022/09/29 03:28:17;;;;;;;6.63;2.42;;;21.00;65.30;;;;;;4912603;29;20029;-69
2022/09/29 03:30:44;;;;;;;5.22;2.80;;;21.00;65.50;;;;;;4918631;29;20480;-69
2022/09/29 03:33:11;;;;;;;6.38;3.20;;;21.00;66.10;;;;;;4912109;29;20123;-69
2022/09/29 03:35:36;;;;;;;8.57;2.80;;;21.00;65.50;;;;;;4918888;29;20156;-69
2022/09/29 03:38:02;;;;;;;11.52;3.03;;;21.00;66.10;;;;;;4919720;29;20103;-69
2022/09/29 03:40:28;;;;;;;9.88;3.28;;;21.00;66.00;;;;;;4911466;29;20032;-69
2022/09/29 03:42:54;;;;;;;6.55;3.00;;;21.00;65.50;;;;;;4919413;29;20031;-68
2022/09/29 03:45:20;;;;;;;7.50;3.00;;;21.10;65.50;;;;;;4928341;29;20027;-69
2022/09/29 03:47:46;;;;;;;6.85;3.00;;;21.00;65.30;;;;;;4923800;29;20059;-69
2022/09/29 03:50:12;;;;;;;4.95;2.80;;;21.00;65.10;;;;;;4923443;29;20032;-69
2022/09/29 03:52:38;;;;;;;5.53;2.63;;;21.10;65.10;;;;;;4911501;29;20103;-69
2022/09/29 03:55:04;;;;;;;6.55;2.67;;;21.10;64.70;;;;;;4918202;29;20611;-68
2022/09/29 03:57:30;;;;;;;5.63;2.50;;;21.10;64.90;;;;;;4914874;29;20032;-69
2022/09/29 03:59:56;;;;;;;7.68;2.45;;;21.10;64.70;;;;;;4918403;29;20111;-69
2022/09/29 04:02:22;;;;;;;7.45;2.63;;;21.10;64.60;;;;;;4918521;29;20028;-69
2022/09/29 04:04:48;;;;;;;6.30;2.70;;;21.10;64.80;;;;;;4916678;29;20031;-69
2022/09/29 04:07:14;;;;;;;5.75;2.35;;;21.10;64.60;;;;;;4920250;29;20477;-69
2022/09/29 04:09:40;;;;;;;10.77;2.90;;;21.10;64.90;;;;;;4915004;29;20140;-69
2022/09/29 04:12:06;;;;;;;7.43;2.58;;;21.10;64.90;;;;;;4916083;29;20524;-68
2022/09/29 04:14:32;;;;;;;4.07;2.47;;;21.10;65.00;;;;;;4915106;29;20028;-69
2022/09/29 04:16:58;;;;;;;8.35;2.63;;;21.00;65.00;;;;;;4926545;29;20035;-69
2022/09/29 04:19:23;;;;;;;7.78;2.70;;;21.10;65.20;;;;;;4923362;29;20087;-69
2022/09/29 04:21:49;;;;;;;7.43;2.65;;;21.10;64.60;;;;;;4922195;29;20032;-69
2022/09/29 04:24:16;;;;;;;10.73;2.95;;;21.10;64.90;;;;;;4921848;29;20042;-68
2022/09/29 04:26:43;;;;;;;13.50;3.35;;;21.00;65.30;;;;;;4926174;29;20036;-69
2022/09/29 04:29:10;;;;;;;12.10;2.95;;;21.10;65.70;;;;;;4923486;29;20043;-69
2022/09/29 04:31:36;;;;;;;6.72;2.67;;;21.00;65.70;;;;;;4926686;29;20023;-69
2022/09/29 04:34:01;;;;;;;12.07;3.50;;;21.00;65.50;;;;;;4922451;29;20389;-69
2022/09/29 04:36:27;;;;;;;17.27;2.80;;;21.00;65.60;;;;;;4914392;29;20115;-69
2022/09/29 04:38:53;;;;;;;9.95;2.65;;;21.00;65.90;;;;;;4915746;29;20457;-69
2022/09/29 04:41:19;;;;;;;6.30;2.50;;;21.00;65.70;;;;;;4921597;29;20028;-69
2022/09/29 04:43:45;;;;;;;5.32;2.30;;;21.00;65.90;;;;;;4922850;29;20473;-69
2022/09/29 04:46:13;;;;;;;7.05;2.78;;;21.00;65.60;;;;;;4913085;29;20504;-69
2022/09/29 04:48:39;;;;;;;5.97;2.60;;;21.10;65.70;;;;;;4922622;29;20036;-69
2022/09/29 04:51:06;;;;;;;8.77;2.53;;;21.00;65.80;;;;;;4920261;29;20039;-69
2022/09/29 04:53:32;;;;;;;10.18;2.67;;;21.00;65.80;;;;;;4920831;29;20024;-69
2022/09/29 04:56:03;;;;;;;6.57;2.90;;;21.00;65.60;;;;;;4926090;29;20551;-69
2022/09/29 04:58:29;;;;;;;9.90;2.40;;;21.00;65.70;;;;;;4904680;29;20032;-69
2022/09/29 05:00:54;;;;;;;7.65;3.08;;;21.00;65.70;;;;;;4920455;29;20510;-69
2022/09/29 05:03:22;;;;;;;10.27;2.85;;;21.00;65.60;;;;;;4904025;29;20035;-68
2022/09/29 05:05:48;;;;;;;5.38;2.70;;;21.00;65.30;;;;;;4925490;29;20056;-69
2022/09/29 05:08:14;;;;;;;8.73;2.40;;;21.00;65.20;;;;;;4920742;29;20074;-69
2022/09/29 05:10:39;;;;;;;6.90;2.72;;;21.00;65.30;;;;;;4920489;29;20040;-69
2022/09/29 05:13:05;;;;;;;7.68;2.60;;;21.10;65.30;;;;;;4916589;29;20115;-69
2022/09/29 05:15:31;;;;;;;9.68;2.80;;;21.10;65.50;;;;;;4920327;29;20036;-69
2022/09/29 05:18:01;;;;;;;7.35;2.70;;;21.10;65.30;;;;;;4912544;29;20079;-69
2022/09/29 05:20:27;;;;;;;5.60;2.63;;;21.10;65.20;;;;;;4922783;29;20036;-69
2022/09/29 05:22:53;;;;;;;7.05;3.05;;;21.10;65.30;;;;;;4917939;29;20038;-69
2022/09/29 05:25:19;;;;;;;8.55;2.45;;;21.00;65.20;;;;;;4923381;29;20031;-69
2022/09/29 05:27:45;;;;;;;6.82;2.75;;;21.00;65.70;;;;;;4923302;29;20415;-69
2022/09/29 05:30:11;;;;;;;11.65;2.83;;;21.00;65.30;;;;;;4922034;29;20024;-69
2022/09/29 05:32:37;;;;;;;12.18;3.15;;;21.00;65.20;;;;;;4915400;29;20028;-69
2022/09/29 05:35:03;;;;;;;6.55;2.70;;;21.00;65.80;;;;;;4921353;29;20075;-69
2022/09/29 05:37:29;;;;;;;8.20;2.83;;;21.00;65.70;;;;;;4913251;29;20024;-69
2022/09/29 05:39:54;;;;;;;6.80;2.45;;;21.00;66.10;;;;;;4897036;29;20526;-69
2022/09/29 05:42:20;;;;;;;6.82;2.85;;;21.00;66.10;;;;;;4913422;29;20469;-69
2022/09/29 05:44:46;;;;;;;5.18;2.63;;;21.00;66.10;;;;;;4921980;29;20120;-69
2022/09/29 05:47:12;;;;;;;8.45;2.83;;;21.00;65.90;;;;;;4912154;29;20441;-69
2022/09/29 05:49:38;;;;;;;9.40;3.40;;;21.00;66.10;;;;;;4920989;29;20028;-69
2022/09/29 05:52:04;;;;;;;8.80;2.78;;;21.00;66.10;;;;;;4913845;29;20047;-69
2022/09/29 05:54:30;;;;;;;10.98;2.80;;;21.00;66.20;;;;;;4921606;29;20079;-69
2022/09/29 05:56:56;;;;;;;8.48;2.63;;;21.00;66.10;;;;;;4913581;29;20400;-69
2022/09/29 05:59:22;;;;;;;11.05;3.10;;;21.00;66.40;;;;;;4923990;29;20106;-69
2022/09/29 06:01:47;;;;;;;6.80;3.00;;;21.00;66.10;;;;;;4913085;29;20563;-69
2022/09/29 06:04:16;;;;;;;8.02;2.97;;;21.00;66.00;;;;;;4923021;29;20301;-70
2022/09/29 06:06:42;;;;;;;5.90;2.90;;;21.00;66.70;;;;;;4912272;29;20578;-69
2022/09/29 06:09:08;;;;;;;7.15;2.80;;;21.00;66.20;;;;;;4920686;29;20110;-69
2022/09/29 06:11:34;;;;;;;5.78;2.63;;;21.00;66.40;;;;;;4914707;29;20074;-69
2022/09/29 06:14:01;;;;;;;7.63;3.10;;;21.00;66.60;;;;;;4924469;29;20245;-69
2022/09/29 06:16:29;;;;;;;11.98;3.47;;;21.00;66.40;;;;;;4923252;29;20032;-69
2022/09/29 06:18:55;;;;;;;6.95;3.03;;;21.00;67.10;;;;;;4912288;29;20052;-69
2022/09/29 06:21:23;;;;;;;7.75;3.15;;;21.00;66.70;;;;;;4921898;29;21375;-69
2022/09/29 06:23:50;;;;;;;10.25;3.33;;;21.00;66.10;;;;;;4911492;29;20039;-69
2022/09/29 06:26:18;;;;;;;7.32;3.10;;;21.00;66.20;;;;;;4920710;29;20119;-70
2022/09/29 06:28:44;;;;;;;8.55;2.97;;;21.00;65.70;;;;;;4911233;29;20040;-70
2022/09/29 06:31:13;;;;;;;6.65;2.95;;;21.00;65.80;;;;;;4920949;29;20035;-70
2022/09/29 06:33:39;;;;;;;6.82;3.10;;;21.00;65.70;;;;;;4931199;29;20400;-70
2022/09/29 06:39:03;;;;;;;9.18;3.22;;;21.10;65.60;;;;;;4908503;29;20123;-70
2022/09/29 06:41:29;;;;;;;8.18;3.47;;;21.10;65.60;;;;;;4925622;29;20042;-70
2022/09/29 06:43:56;;;;;;;8.05;3.63;;;21.10;65.50;;;;;;4916216;29;20107;-70
2022/09/29 06:46:25;;;;;;;7.35;2.88;;;21.10;65.60;;;;;;4917637;29;20024;-69
2022/09/29 06:48:53;;;;;;;8.48;3.03;;;21.00;65.50;;;;;;4922385;29;20027;-69
2022/09/29 06:51:23;;;;;;;5.43;3.08;;;21.10;65.70;;;;;;4920063;29;20414;-70
2022/09/29 06:53:50;;;;;;;6.18;3.13;;;21.10;65.60;;;;;;4924852;29;20027;-70
2022/09/29 06:56:17;;;;;;;7.35;3.13;;;21.10;65.60;;;;;;4923047;29;20496;-70
2022/09/29 06:58:44;;;;;;;6.63;3.40;;;21.10;65.60;;;;;;4915827;29;20024;-70
2022/09/29 07:01:11;;;;;;;10.13;3.20;;;21.10;65.50;;;;;;4914356;29;20091;-69
2022/09/29 07:03:37;;;;;;;8.25;3.20;;;21.10;65.40;;;;;;4917513;29;20040;-69
2022/09/29 07:06:08;;;;;;;11.48;3.70;;;21.10;65.70;;;;;;4911668;29;20370;-69
2022/09/29 07:08:37;;;;;;;5.90;3.13;;;21.10;65.70;;;;;;4918063;29;20119;-70
2022/09/29 07:11:08;;;;;;;10.60;3.43;;;21.10;65.50;;;;;;4911034;29;20038;-70
2022/09/29 07:13:35;;;;;;;12.23;3.40;;;21.10;65.70;;;;;;4915933;29;20304;-69
2022/09/29 07:16:08;;;;;;;9.93;3.70;;;21.10;65.70;;;;;;4919718;29;20111;-70
2022/09/29 07:18:36;;;;;;;8.57;3.22;;;21.10;65.70;;;;;;4914919;29;20032;-70
2022/09/29 07:21:03;;;;;;;11.85;3.97;;;21.10;65.70;;;;;;4925124;29;20028;-70
2022/09/29 07:23:29;;;;;;;11.93;3.35;;;21.10;65.70;;;;;;4910422;29;20390;-71
2022/09/29 07:25:55;;;;;;;17.10;3.40;;;21.10;65.70;;;;;;4915707;29;20068;-69
2022/09/29 07:28:21;;;;;;;13.88;3.45;;;21.20;66.20;;;;;;4910271;29;20028;-69
2022/09/29 07:31:17;;;;;;;24.05;4.70;;;21.20;66.10;;;;;;4915483;29;20512;-69
2022/09/29 07:33:44;;;;;;;17.20;4.60;;;21.20;67.80;;;;;;4910366;29;20032;-69
2022/09/29 07:36:11;;;;;;;30.85;4.97;;;21.30;67.60;;;;;;4915242;29;20071;-69
2022/09/29 07:38:38;;;;;;;28.70;5.20;;;21.30;69.40;;;;;;4922762;29;20024;-69
2022/09/29 07:41:07;;;;;;;23.92;5.05;;;21.30;68.60;;;;;;4915587;29;20036;-69
2022/09/29 07:43:33;;;;;;;35.33;6.20;;;21.40;69.10;;;;;;4927904;29;20040;-69
2022/09/29 07:46:00;;;;;;;25.63;5.55;;;21.50;69.40;;;;;;4920206;29;20028;-68
2022/09/29 07:48:26;;;;;;;29.35;5.45;;;21.60;69.60;;;;;;4932178;29;20114;-69
2022/09/29 07:51:00;;;;;;;26.20;6.18;;;21.60;69.00;;;;;;4920877;29;20072;-71
2022/09/29 07:53:26;;;;;;;21.98;5.95;;;21.60;69.50;;;;;;4914968;29;20032;-69
2022/09/29 07:55:52;;;;;;;27.73;5.95;;;21.60;71.90;;;;;;4914597;29;20032;-68
2022/09/29 07:58:18;;;;;;;27.20;6.45;;;21.60;71.20;;;;;;4925420;29;20087;-74
2022/09/29 08:00:43;;;;;;;20.13;5.85;;;21.70;70.40;;;;;;4913453;29;20058;-71
2022/09/29 08:03:09;;;;;;;36.75;11.77;;;21.60;71.70;;;;;;4923248;29;20075;-73
2022/09/29 08:05:35;;;;;;;31.20;10.93;;;21.60;71.40;;;;;;4912246;29;20032;-70
2022/09/29 08:08:03;;;;;;;29.83;12.05;;;21.60;70.80;;;;;;4928925;29;20035;-72
2022/09/29 08:10:31;;;;;;;36.33;10.10;;;21.60;71.80;;;;;;4930343;29;20032;-73
2022/09/29 08:12:57;;;;;;;34.20;10.00;;;21.60;71.70;;;;;;4915039;29;20495;-72
2022/09/29 08:15:24;;;;;;;30.45;10.23;;;21.50;71.20;;;;;;4920141;29;20032;-71
2022/09/29 08:17:54;;;;;;;33.17;9.35;;;21.60;70.50;;;;;;4912969;29;20035;-72
2022/09/29 08:20:22;;;;;;;24.33;9.30;;;21.50;70.20;;;;;;4914664;29;20068;-73
2022/09/29 08:22:48;;;;;;;20.05;9.10;;;21.50;70.00;;;;;;4910836;29;20046;-73
2022/09/29 08:25:17;;;;;;;31.33;17.60;;;21.50;70.00;;;;;;4918365;29;20119;-72
2022/09/29 08:27:44;;;;;;;40.10;26.15;;;21.30;67.30;;;;;;4913486;29;20040;-71
2022/09/29 08:30:11;;;;;;;25.50;17.05;;;21.10;58.70;;;;;;4910337;29;20035;-71
2022/09/29 08:32:37;;;;;;;21.13;13.75;;;20.90;57.20;;;;;;4918564;29;20028;-75
2022/09/29 08:35:05;;;;;;;18.55;12.07;;;20.80;59.00;;;;;;4913133;29;20231;-74
2022/09/29 08:37:30;;;;;;;17.85;11.82;;;20.80;58.30;;;;;;4912889;29;20465;-75
2022/09/29 08:39:56;;;;;;;19.45;13.02;;;20.90;60.40;;;;;;4911082;29;20052;-75
2022/09/29 08:43:25;;;;;;;25.80;12.45;;;20.90;63.30;;;;;;4913588;29;20036;-75
2022/09/29 08:46:00;;;;;;;22.80;11.73;;;21.00;63.00;;;;;;4863689;29;20075;-74
2022/09/29 08:48:32;;;;;;;23.02;10.85;;;21.10;62.90;;;;;;4873507;29;20608;-76
2022/09/29 08:51:03;;;;;;;16.00;10.30;;;21.10;63.00;;;;;;4928529;23;20055;-73
2022/09/29 08:53:32;;;;;;;19.15;10.45;;;21.20;63.30;;;;;;4942706;29;20042;-72
2022/09/29 08:56:05;;;;;;;19.95;9.75;;;21.20;63.40;;;;;;4943063;29;20035;-72
2022/09/29 08:58:32;;;;;;;20.00;9.75;;;21.20;63.60;;;;;;4944212;29;20038;-73
2022/09/29 09:01:04;;;;;;;16.02;8.75;;;21.20;63.70;;;;;;4925736;29;20035;-73
2022/09/29 09:03:43;;;;;;;16.42;8.50;;;21.20;63.90;;;;;;4935152;29;20039;-73
2022/09/29 09:06:46;;;;;;;19.67;8.50;;;21.20;64.20;;;;;;4936595;28;20082;-73
2022/09/29 09:09:32;;;;;;;19.50;9.48;;;21.20;64.60;;;;;;4930729;29;20050;-72
2022/09/29 09:12:24;;;;;;;14.60;8.10;;;21.20;64.80;;;;;;4937118;29;20083;-71
2022/09/29 09:15:03;;;;;;;18.52;7.95;;;21.30;64.60;;;;;;4911481;29;20024;-71
2022/09/29 09:17:38;;;;;;;16.33;7.78;;;21.20;64.70;;;;;;4932847;29;20071;-71
2022/09/29 09:20:44;;;;;;;19.58;7.75;;;21.30;65.00;;;;;;4933449;29;20050;-72
2022/09/29 09:23:38;;;;;;;18.90;7.07;;;21.20;65.20;;;;;;4925287;29;20043;-72
2022/09/29 09:26:14;;;;;;;13.65;7.50;;;21.20;65.50;;;;;;4934319;29;20480;-72
2022/09/29 09:29:00;;;;;;;17.02;7.75;;;21.30;65.70;;;;;;4935889;29;20035;-69
2022/09/29 09:31:42;;;;;;;13.75;7.15;;;21.20;65.80;;;;;;4948105;28;20369;-71
2022/09/29 09:34:27;;;;;;;18.88;7.22;;;21.20;65.90;;;;;;4937834;29;20027;-71
2022/09/29 09:37:28;;;;;;;20.13;7.88;;;21.20;66.00;;;;;;4934206;29;20036;-71
2022/09/29 09:40:20;;;;;;;13.02;6.30;;;21.20;66.10;;;;;;4940372;28;20110;-72
2022/09/29 09:42:58;;;;;;;15.98;6.75;;;21.20;66.20;;;;;;4945693;28;20044;-72
2022/09/29 09:45:28;;;;;;;12.90;6.37;;;21.30;66.30;;;;;;4930058;29;20473;-72
2022/09/29 09:48:14;;;;;;;14.73;7.03;;;21.30;66.40;;;;;;4902546;29;20474;-72
2022/09/29 09:50:45;;;;;;;13.43;7.03;;;21.30;66.50;;;;;;4923034;29;20046;-72
2022/09/29 09:53:19;;;;;;;14.02;7.25;;;21.30;66.50;;;;;;4905548;29;20039;-72
2022/09/29 09:56:07;;;;;;;14.27;6.35;;;21.30;66.70;;;;;;4937399;29;20031;-73
2022/09/29 09:58:55;;;;;;;18.88;6.90;;;21.30;67.00;;;;;;4916034;29;20449;-72
2022/09/29 10:01:21;;;;;;;16.70;6.95;;;21.40;67.50;;;;;;4932718;29;20425;-72
2022/09/29 10:03:47;;;;;;;14.75;7.18;;;21.50;67.60;;;;;;4931667;29;20110;-71
2022/09/29 10:06:13;;;;;;;17.55;7.03;;;21.50;67.50;;;;;;4935101;29;20162;-74
2022/09/29 10:08:41;;;;;;;17.73;6.80;;;21.50;67.60;;;;;;4932424;29;20040;-71
2022/09/29 10:11:27;;;;;;;16.55;6.38;;;21.50;67.70;;;;;;4930516;29;20039;-71
2022/09/29 10:14:24;;;;;;;17.75;7.07;;;21.50;67.50;;;;;;4936435;29;20062;-71
2022/09/29 10:16:57;;;;;;;12.70;6.28;;;21.50;67.40;;;;;;4932429;29;20047;-71
2022/09/29 10:19:52;;;;;;;17.50;9.48;;;21.40;67.30;;;;;;4936572;28;20027;-72
2022/09/29 10:22:19;;;;;;;16.23;10.00;;;21.30;62.80;;;;;;4940103;29;20024;-72
2022/09/29 10:24:45;;;;;;;16.17;9.05;;;21.20;62.70;;;;;;4937114;29;20086;-71
2022/09/29 10:27:19;;;;;;;14.98;8.18;;;21.10;61.80;;;;;;4941995;29;20038;-74
2022/09/29 10:29:51;;;;;;;14.13;7.22;;;21.10;60.80;;;;;;4952100;28;20395;-73
2022/09/29 10:32:37;;;;;;;18.92;7.60;;;21.10;61.20;;;;;;4947808;28;20542;-72
2022/09/29 10:35:19;;;;;;;13.05;7.15;;;21.10;61.80;;;;;;4931466;29;20027;-73
2022/09/29 10:38:01;;;;;;;11.57;6.28;;;21.20;62.20;;;;;;4936151;29;20054;-71
2022/09/29 10:40:28;;;;;;;11.88;6.00;;;21.20;62.00;;;;;;4942734;28;20041;-73
2022/09/29 10:42:56;;;;;;;13.13;6.00;;;21.20;62.20;;;;;;4950545;29;20035;-74
2022/09/29 10:45:24;;;;;;;10.95;5.85;;;21.20;62.40;;;;;;4947332;28;20031;-73
2022/09/29 10:47:56;;;;;;;12.82;5.65;;;21.20;62.70;;;;;;4951805;28;20053;-73
2022/09/29 10:50:28;;;;;;;9.77;5.53;;;21.20;63.10;;;;;;4941112;29;20031;-72
2022/09/29 10:52:57;;;;;;;10.68;5.43;;;21.20;63.30;;;;;;4933399;29;20032;-73
2022/09/29 10:55:24;;;;;;;14.37;5.63;;;21.20;63.40;;;;;;4931622;29;20036;-73
2022/09/29 10:57:53;;;;;;;14.45;5.80;;;21.20;63.50;;;;;;4933239;29;20028;-73
2022/09/29 11:00:33;;;;;;;11.55;5.47;;;21.30;63.70;;;;;;4936494;29;20038;-73
2022/09/29 11:03:21;;;;;;;8.88;5.30;;;21.20;63.80;;;;;;4931756;29;20271;-73
2022/09/29 11:06:10;;;;;;;11.52;5.63;;;21.30;64.40;;;;;;4932085;29;20044;-73
2022/09/29 11:09:03;;;;;;;7.22;4.95;;;21.20;64.50;;;;;;4932512;29;20091;-73
2022/09/29 11:11:35;;;;;;;10.00;5.15;;;21.20;64.50;;;;;;4936243;29;20056;-73
2022/09/29 11:14:01;;;;;;;10.73;5.18;;;21.20;64.70;;;;;;4946496;29;20082;-72
2022/09/29 11:16:36;;;;;;;10.60;5.28;;;21.20;65.00;;;;;;4938366;29;20110;-72
2022/09/29 11:19:07;;;;;;;9.80;4.70;;;21.20;64.70;;;;;;4937408;29;20520;-72
2022/09/29 11:21:50;;;;;;;8.02;4.57;;;21.20;65.20;;;;;;4956216;29;20131;-73
2022/09/29 11:24:58;;;;;;;7.40;4.32;;;21.20;65.20;;;;;;4935830;29;20078;-73
2022/09/29 11:27:43;;;;;;;7.72;4.93;;;21.20;65.10;;;;;;4917382;29;20039;-72
2022/09/29 11:30:22;;;;;;;7.95;4.85;;;21.20;65.40;;;;;;4937302;29;20046;-73
2022/09/29 11:33:15;;;;;;;9.77;4.67;;;21.20;65.50;;;;;;4937103;29;20046;-72
2022/09/29 11:36:17;;;;;;;8.48;4.53;;;21.20;65.70;;;;;;4949385;29;20063;-72
2022/09/29 11:38:52;;;;;;;8.52;4.85;;;21.20;65.20;;;;;;4952363;28;20063;-72
2022/09/29 11:41:41;;;;;;;8.40;4.85;;;21.10;65.60;;;;;;4948118;29;20046;-73
2022/09/29 11:44:35;;;;;;;6.68;4.18;;;21.10;66.00;;;;;;4954309;29;20066;-72
2022/09/29 11:47:20;;;;;;;8.07;4.95;;;21.20;65.90;;;;;;4950674;29;20123;-72
2022/09/29 11:50:13;;;;;;;8.52;4.80;;;21.10;66.10;;;;;;4953861;28;20415;-73
2022/09/29 11:52:52;;;;;;;7.43;4.47;;;21.10;66.40;;;;;;4954650;28;20039;-72
2022/09/29 11:55:44;;;;;;;7.00;4.47;;;21.10;65.90;;;;;;4952715;29;20078;-72
2022/09/29 11:58:29;;;;;;;6.68;4.25;;;21.10;66.00;;;;;;4954762;28;20035;-72
2022/09/29 12:01:09;;;;;;;8.43;4.93;;;21.10;66.20;;;;;;4952933;28;20027;-72
2022/09/29 12:03:49;;;;;;;8.35;4.50;;;21.10;66.40;;;;;;4931847;29;20039;-72
2022/09/29 12:06:32;;;;;;;19.00;5.22;;;21.10;66.50;;;;;;4939673;29;20493;-72
2022/09/29 12:09:15;;;;;;;12.07;5.03;;;21.10;66.20;;;;;;4931200;29;20119;-72
2022/09/29 12:12:05;;;;;;;8.38;4.40;;;21.00;63.80;;;;;;4935032;28;20036;-72
2022/09/29 12:14:56;;;;;;;8.55;4.20;;;20.90;58.40;;;;;;4933550;29;20111;-73
2022/09/29 12:17:23;;;;;;;11.65;3.85;;;20.80;57.10;;;;;;4935285;29;20024;-73
2022/09/29 12:20:02;;;;;;;11.13;3.83;;;20.80;57.80;;;;;;4935492;29;20079;-73
2022/09/29 12:22:28;;;;;;;10.32;3.88;;;20.70;57.00;;;;;;4935179;29;20511;-73
2022/09/29 12:25:00;;;;;;;21.15;3.63;;;20.70;58.00;;;;;;4932854;29;20032;-73
2022/09/29 12:27:32;;;;;;;11.70;3.90;;;20.60;53.70;;;;;;4917058;29;20094;-73
2022/09/29 12:30:19;;;;;;;14.90;3.83;;;20.70;53.40;;;;;;4948537;28;20027;-72
2022/09/29 12:33:03;;;;;;;6.88;3.40;;;20.60;53.60;;;;;;4938640;29;20035;-73
2022/09/29 12:35:41;;;;;;;4.43;2.95;;;20.60;52.40;;;;;;4934267;29;20046;-73
2022/09/29 12:38:36;;;;;;;6.88;3.28;;;20.60;52.00;;;;;;4939145;29;20058;-73
2022/09/29 12:41:05;;;;;;;9.45;3.10;;;20.50;51.60;;;;;;4939079;28;20062;-73
2022/09/29 12:43:41;;;;;;;6.05;3.22;;;20.60;51.80;;;;;;4945761;29;20039;-73
2022/09/29 12:46:12;;;;;;;5.35;3.40;;;20.60;52.60;;;;;;4940544;29;20058;-73
2022/09/29 12:48:48;;;;;;;8.93;3.33;;;20.60;51.90;;;;;;4908088;29;20031;-74
2022/09/29 12:51:50;;;;;;;6.45;3.38;;;20.60;51.80;;;;;;4940134;28;20038;-73
2022/09/29 12:54:35;;;;;;;6.03;3.22;;;20.60;51.10;;;;;;4939868;29;20034;-72
2022/09/29 12:57:14;;;;;;;11.85;3.53;;;20.60;52.90;;;;;;4935461;29;20115;-72
2022/09/29 12:59:56;;;;;;;14.02;3.45;;;20.70;52.90;;;;;;4933858;29;20035;-72
2022/09/29 13:02:55;;;;;;;17.33;4.03;;;20.80;53.10;;;;;;4948768;29;20053;-71
2022/09/29 13:06:23;;;;;;;10.40;3.08;;;20.90;54.60;;;;;;4950551;29;20035;-71
2022/09/29 13:09:05;;;;;;;8.32;3.25;;;20.90;54.40;;;;;;4912465;29;20143;-71
2022/09/29 13:11:59;;;;;;;11.32;3.28;;;20.90;55.20;;;;;;4880830;29;20068;-72
2022/09/29 13:15:04;;;;;;;14.27;4.57;;;20.90;56.10;;;;;;4925158;29;20082;-70
2022/09/29 13:17:53;;;;;;;8.45;3.08;;;20.90;56.50;;;;;;4934725;29;20090;-70